.
WxDataArchive / Data Records for 2016-03-16
2016-03-15 March 2016 2016-03-17

Data Records for Wednesday, 16 March 2016

Time	Temp	Chill	HIndex	Humid	Dewpt	 Wind 	HiWind	WindDir	Rain 	Barom
-----	----	-----	------	-----	-----	------	------	-------	-----	-----
00:00	51.6	51.6	51.6	91	49.1	5	12	90	0.00	29.549 
00:05	51.6	51.6	51.6	91	49.1	4	11	90	0.00	29.549 
00:10	51.6	51.6	51.6	91	49.1	5	10	90	0.00	29.549 
00:15	51.6	51.6	51.6	91	49.1	4	9	90	0.00	29.528 
00:20	51.4	51.4	51.4	91	48.9	4	9	112	0.00	29.528 
00:25	51.4	51.4	51.4	91	48.9	4	9	112	0.00	29.528 
00:30	51.3	51.3	51.3	91	48.8	4	7	90	0.00	29.516 
00:35	51.3	51.3	51.3	91	48.8	4	9	90	0.00	29.516 
00:40	51.4	51.4	51.4	91	48.9	4	9	90	0.00	29.516 
00:45	51.4	51.4	51.4	91	48.9	4	9	90	0.00	29.504 
00:50	51.4	51.4	51.4	91	48.9	4	7	90	0.00	29.504 
00:55	51.6	51.6	51.6	91	49.1	4	10	112	0.00	29.504 
01:00	51.7	51.7	51.7	91	49.2	4	9	90	0.00	29.506 
01:05	51.7	51.7	51.7	91	49.2	4	11	112	0.00	29.506 
01:10	51.7	51.7	51.7	90	48.9	3	7	112	0.00	29.506 
01:15	51.6	51.6	51.6	91	49.1	3	6	90	0.00	29.497 
01:20	51.6	51.6	51.6	91	49.1	2	6	112	0.00	29.497 
01:25	51.7	51.7	51.7	91	49.2	2	7	90	0.00	29.497 
01:30	51.7	51.7	51.7	91	49.2	2	6	90	0.00	29.497 
01:35	51.6	51.6	51.6	91	49.1	2	6	112	0.00	29.497 
01:40	51.6	51.6	51.6	91	49.1	2	6	112	0.00	29.497 
01:45	51.6	51.6	51.6	91	49.1	3	6	90	0.00	29.494 
01:50	51.6	51.6	51.6	91	49.1	3	8	90	0.00	29.494 
01:55	51.6	51.6	51.6	91	49.1	3	5	90	0.00	29.494 
02:00	51.6	51.6	51.6	91	49.1	5	8	112	0.00	29.478 
02:05	51.6	51.6	51.6	91	49.1	3	6	112	0.00	29.478 
02:10	51.6	51.6	51.6	91	49.1	2	5	90	0.00	29.478 
02:15	51.6	51.6	51.6	91	49.1	4	9	90	0.00	29.465 
02:20	51.4	51.4	51.4	91	48.9	2	7	90	0.00	29.465 
02:25	51.4	51.4	51.4	91	48.9	1	4	90	0.00	29.465 
02:30	51.3	51.3	51.3	91	48.8	0	4	90	0.00	29.478 
02:35	51.4	51.4	51.4	92	49.2	4	7	112	0.00	29.478 
02:40	51.4	51.4	51.4	91	48.9	0	3	112	0.00	29.478 
02:45	51.4	51.4	51.4	91	48.9	1	4	112	0.00	29.461 
02:50	51.4	51.4	51.4	91	48.9	1	4	112	0.00	29.461 
02:55	51.3	51.3	51.3	92	49.1	1	4	112	0.00	29.461 
03:00	51.3	51.3	51.3	92	49.1	1	3	112	0.00	29.453 
03:05	51.1	51.1	51.1	92	48.9	1	4	112	0.00	29.453 
03:10	51.1	51.1	51.1	92	48.9	2	5	112	0.00	29.453 
03:15	51.1	51.1	51.1	92	48.9	2	4	112	0.00	29.446 
03:20	51.1	51.1	51.1	92	48.9	1	3	112	0.00	29.446 
03:25	51.3	51.3	51.3	92	49.1	0	4	112	0.00	29.446 
03:30	51.3	51.3	51.3	92	49.1	2	4	112	0.00	29.446 
03:35	51.3	51.3	51.3	92	49.1	1	4	112	0.00	29.446 
03:40	51.3	51.3	51.3	92	49.1	0	3	112	0.00	29.446 
03:45	51.1	51.1	51.1	92	48.9	1	3	112	0.00	29.445 
03:50	51.0	51.0	51.0	92	48.8	0	0	---	0.00	29.445 
03:55	51.0	51.0	51.0	92	48.8	1	4	112	0.00	29.445 
04:00	51.1	51.1	51.1	92	48.9	2	6	112	0.00	29.448 
04:05	51.4	51.4	51.4	92	49.2	1	3	270	0.00	29.448 
04:10	51.6	51.6	51.6	92	49.4	0	1	270	0.00	29.448 
04:15	51.6	51.6	51.6	92	49.4	0	0	---	0.00	29.429 
04:20	51.6	51.6	51.6	92	49.4	0	0	---	0.00	29.429 
04:25	51.6	51.6	51.6	92	49.4	0	0	---	0.00	29.429 
04:30	51.6	51.6	51.6	92	49.4	0	0	---	0.00	29.429 
04:35	51.6	51.6	51.6	92	49.4	0	0	---	0.00	29.429 
04:40	51.7	51.7	51.7	92	49.5	0	0	---	0.00	29.429 
04:45	51.7	51.7	51.7	92	49.5	0	0	---	0.00	29.431 
04:50	52.2	52.2	52.2	93	50.2	0	1	270	0.00	29.431 
04:55	53.2	53.2	53.2	94	51.5	1	3	270	0.00	29.431 
05:00	54.2	54.2	54.2	94	52.5	1	4	270	0.00	29.443 
05:05	55.1	55.1	55.1	93	53.1	2	7	248	0.00	29.443 
05:10	55.6	55.6	55.6	92	53.3	2	5	248	0.00	29.443 
05:15	55.9	55.9	55.9	89	52.7	2	6	248	0.00	29.448 
05:20	56.3	56.3	56.3	86	52.2	2	6	248	0.00	29.448 
05:25	56.5	56.5	56.5	84	51.7	2	4	248	0.00	29.448 
05:30	56.6	56.6	56.6	82	51.2	2	7	248	0.00	29.457 
05:35	56.7	56.7	56.7	82	51.3	1	5	248	0.00	29.457 
05:40	56.7	56.7	56.7	81	50.9	2	5	248	0.00	29.457 
05:45	56.7	56.7	56.7	81	50.9	2	6	248	0.00	29.465 
05:50	56.6	56.6	56.6	78	49.8	3	7	248	0.00	29.465 
05:55	56.5	56.5	56.5	77	49.4	3	10	248	0.00	29.465 
06:00	56.3	56.3	56.3	77	49.2	3	5	248	0.00	29.472 
06:05	56.2	56.2	56.2	76	48.7	4	8	248	0.00	29.472 
06:10	56.0	56.0	56.0	75	48.2	4	11	248	0.00	29.472 
06:15	55.9	55.9	55.9	75	48.1	4	10	248	0.00	29.479 
06:20	55.7	55.7	55.7	75	47.9	3	9	248	0.00	29.479 
06:25	55.7	55.7	55.7	75	47.9	3	7	270	0.00	29.479 
06:30	55.7	55.7	55.7	75	47.9	3	9	248	0.00	29.490 
06:35	55.6	55.6	55.6	75	47.8	2	8	248	0.00	29.490 
06:40	55.4	55.4	55.4	75	47.6	2	6	248	0.00	29.490 
06:45	55.1	55.1	55.1	74	47.0	3	7	248	0.00	29.500 
06:50	55.0	55.0	55.0	73	46.5	3	6	248	0.00	29.500 
06:55	54.8	54.8	54.8	73	46.3	2	10	248	0.00	29.500 
07:00	54.5	54.5	54.5	73	46.0	3	6	248	0.00	29.508 
07:05	54.2	54.2	54.2	72	45.4	4	13	248	0.00	29.508 
07:10	53.9	53.9	53.9	71	44.7	4	11	248	0.00	29.508 
07:15	53.5	53.5	53.5	70	44.0	5	14	248	0.00	29.522 
07:20	53.1	53.1	53.1	70	43.6	3	7	248	0.00	29.522 
07:25	52.8	52.8	52.8	71	43.7	3	7	248	0.00	29.522 
07:30	52.5	52.5	52.5	72	43.7	2	5	248	0.00	29.527 
07:35	52.3	52.3	52.3	71	43.2	3	9	248	0.00	29.527 
07:40	52.2	52.2	52.2	72	43.4	2	6	248	0.00	29.527 
07:45	51.9	51.9	51.9	72	43.2	2	6	248	0.00	29.543 
07:50	51.9	51.9	51.9	73	43.5	2	5	248	0.00	29.543 
07:55	51.9	51.9	51.9	74	43.9	1	2	292	0.00	29.543 
08:00	51.7	51.7	51.7	74	43.7	2	7	248	0.00	29.551 
08:05	51.7	51.7	51.7	75	44.0	2	4	270	0.00	29.551 
08:10	51.7	51.7	51.7	74	43.7	2	6	248	0.00	29.551 
08:15	51.9	51.9	51.9	74	43.9	2	5	248	0.00	29.555 
08:20	51.7	51.7	51.7	74	43.7	2	7	248	0.00	29.555 
08:25	51.7	51.7	51.7	73	43.3	2	5	248	0.00	29.555 
08:30	51.7	51.7	51.7	73	43.3	3	9	248	0.00	29.560 
08:35	51.7	51.7	51.7	73	43.3	3	9	248	0.00	29.560 
08:40	51.9	51.9	51.9	72	43.2	3	10	248	0.00	29.560 
08:45	51.9	51.9	51.9	72	43.2	2	6	248	0.00	29.567 
08:50	52.0	52.0	52.0	72	43.3	3	11	248	0.00	29.567 
08:55	52.0	52.0	52.0	72	43.3	2	5	248	0.00	29.567 
09:00	52.0	52.0	52.0	72	43.3	1	3	270	0.00	29.573 
09:05	51.9	51.9	51.9	73	43.5	1	4	270	0.00	29.573 
09:10	51.9	51.9	51.9	74	43.9	2	6	248	0.00	29.573 
09:15	51.9	51.9	51.9	73	43.5	2	5	248	0.00	29.577 
09:20	52.0	52.0	52.0	74	44.0	1	5	248	0.00	29.577 
09:25	52.2	52.2	52.2	74	44.2	3	8	270	0.00	29.577 
09:30	52.5	52.5	52.5	75	44.8	4	11	248	0.00	29.577 
09:35	51.9	51.9	51.9	76	44.6	3	12	248	0.00	29.577 
09:40	51.4	51.4	51.4	77	44.4	2	7	270	0.00	29.577 
09:45	51.3	51.3	51.3	77	44.3	2	5	248	0.00	29.581 
09:50	51.3	51.3	51.3	76	44.0	3	7	248	0.00	29.581 
09:55	51.6	51.6	51.6	75	43.9	2	5	248	0.00	29.581 
10:00	51.6	51.6	51.6	73	43.2	4	11	248	0.00	29.585 
10:05	51.6	51.6	51.6	74	43.6	3	9	248	0.00	29.585 
10:10	51.6	51.6	51.6	73	43.2	2	5	248	0.00	29.585 
10:15	51.9	51.9	51.9	73	43.5	3	7	248	0.00	29.590 
10:20	52.0	52.0	52.0	72	43.3	2	9	248	0.00	29.590 
10:25	52.5	52.5	52.5	72	43.7	3	10	248	0.00	29.590 
10:30	52.6	52.6	52.6	70	43.1	3	13	248	0.00	29.593 
10:35	52.3	52.3	52.3	70	42.8	4	10	248	0.00	29.593 
10:40	52.2	52.2	52.2	71	43.1	3	12	248	0.00	29.593 
10:45	52.3	52.3	52.3	71	43.2	2	6	248	0.00	29.596 
10:50	52.5	52.5	52.5	69	42.6	2	9	248	0.00	29.596 
10:55	52.3	52.3	52.3	69	42.4	5	12	248	0.00	29.596 
11:00	52.2	52.2	52.2	69	42.3	3	7	248	0.00	29.603 
11:05	52.0	52.0	52.0	69	42.1	3	8	270	0.00	29.603 
11:10	51.9	51.9	51.9	69	42.1	3	11	248	0.00	29.603 
11:15	51.7	51.7	51.7	69	41.9	3	12	248	0.00	29.611 
11:20	51.6	51.6	51.6	69	41.8	5	14	248	0.00	29.611 
11:25	51.4	51.4	51.4	69	41.6	3	12	248	0.00	29.611 
11:30	52.0	52.0	52.0	70	42.5	4	11	248	0.00	29.611 
11:35	52.3	52.3	52.3	69	42.4	3	10	248	0.00	29.611 
11:40	52.2	52.2	52.2	67	41.6	3	8	248	0.00	29.611 
11:45	52.0	52.0	52.0	67	41.4	3	9	248	0.00	29.624 
11:50	51.7	51.7	51.7	67	41.1	5	12	248	0.00	29.624 
11:55	52.3	52.3	52.3	66	41.3	4	11	248	0.00	29.624 
12:00	52.9	52.9	52.9	66	41.9	3	6	248	0.00	29.624 
12:05	52.9	52.9	52.9	63	40.7	5	9	248	0.00	29.624 
12:10	53.2	53.2	53.2	62	40.5	4	10	270	0.00	29.624 
12:15	53.5	53.5	53.5	61	40.4	4	15	248	0.00	29.629 
12:20	53.6	53.6	53.6	59	39.6	4	11	248	0.00	29.629 
12:25	53.5	53.5	53.5	60	40.0	4	9	248	0.00	29.629 
12:30	54.1	54.1	54.1	60	40.5	4	11	248	0.00	29.638 
12:35	54.1	54.1	54.1	58	39.7	3	10	248	0.00	29.638 
12:40	54.2	54.2	54.2	58	39.7	4	13	248	0.00	29.638 
12:45	54.5	54.5	54.5	56	39.1	4	11	248	0.00	29.641 
12:50	54.4	54.4	54.4	55	38.6	4	9	248	0.00	29.641 
12:55	54.4	54.4	54.4	55	38.6	2	6	248	0.00	29.641 
13:00	54.5	54.5	54.5	53	37.7	4	10	248	0.00	29.642 
13:05	54.5	54.5	54.5	53	37.7	3	7	248	0.00	29.642 
13:10	54.7	54.7	54.7	54	38.4	3	11	248	0.00	29.642 
13:15	54.2	54.2	54.2	50	36.0	5	10	248	0.00	29.651 
13:20	54.2	54.2	54.2	52	37.0	5	11	248	0.00	29.651 
13:25	55.0	55.0	55.0	50	36.7	4	11	270	0.00	29.651 
13:30	56.2	56.2	56.2	50	37.8	3	10	248	0.00	29.647 
13:35	57.2	57.2	57.2	50	38.7	3	10	248	0.00	29.647 
13:40	58.1	58.1	58.1	47	38.0	4	15	248	0.00	29.647 
13:45	58.0	58.0	58.0	44	36.2	5	14	248	0.00	29.648 
13:50	57.6	57.6	57.6	43	35.3	5	10	270	0.00	29.648 
13:55	57.3	57.3	57.3	43	35.0	5	13	248	0.00	29.648 
14:00	56.9	56.9	56.9	42	34.0	5	18	248	0.00	29.657 
14:05	57.2	57.2	57.2	41	33.7	6	16	248	0.00	29.657 
14:10	56.9	56.9	56.9	43	34.6	3	6	248	0.00	29.657 
14:15	57.2	57.2	57.2	39	32.5	7	17	248	0.00	29.656 
14:20	57.5	57.5	57.5	37	31.4	6	16	248	0.00	29.656 
14:25	57.8	57.8	57.8	37	31.7	6	16	248	0.00	29.656 
14:30	58.1	58.1	58.1	34	29.9	6	13	248	0.00	29.655 
14:35	58.0	58.0	58.0	38	32.5	7	15	248	0.00	29.655 
14:40	58.1	58.1	58.1	35	30.6	7	15	248	0.00	29.655 
14:45	58.1	58.1	58.1	33	29.2	6	13	248	0.00	29.660 
14:50	58.3	58.3	58.3	32	28.6	7	12	270	0.00	29.660 
14:55	58.1	58.1	58.1	33	29.2	7	18	270	0.00	29.660 
15:00	58.1	58.1	58.1	32	28.4	7	19	248	0.00	29.666 
15:05	58.3	58.3	58.3	28	25.3	7	15	248	0.00	29.666 
15:10	58.7	58.7	58.7	29	26.5	5	12	270	0.00	29.666 
15:15	58.7	58.7	58.7	29	26.5	6	14	270	0.00	29.660 
15:20	59.2	59.2	59.2	30	27.8	5	11	270	0.00	29.660 
15:25	59.2	59.2	59.2	29	27.0	5	11	270	0.00	29.660 
15:30	59.2	59.2	59.2	30	27.8	5	12	270	0.00	29.667 
15:35	58.9	58.9	58.9	29	26.7	5	11	248	0.00	29.667 
15:40	58.9	58.9	58.9	29	26.7	5	11	270	0.00	29.667 
15:45	59.2	59.2	59.2	29	27.0	5	13	270	0.00	29.675 
15:50	59.0	59.0	59.0	30	27.6	5	14	270	0.00	29.675 
15:55	59.0	59.0	59.0	31	28.4	5	11	270	0.00	29.675 
16:00	59.2	59.2	59.2	30	27.8	6	14	248	0.00	29.674 
16:05	59.0	59.0	59.0	30	27.6	6	15	248	0.00	29.674 
16:10	58.7	58.7	58.7	31	28.1	7	16	248	0.00	29.674 
16:15	58.7	58.7	58.7	31	28.1	6	13	248	0.00	29.686 
16:20	58.7	58.7	58.7	28	25.7	6	15	248	0.00	29.686 
16:25	58.3	58.3	58.3	32	28.6	5	14	270	0.00	29.686 
16:30	58.0	58.0	58.0	33	29.1	4	10	270	0.00	29.696 
16:35	58.1	58.1	58.1	33	29.2	5	12	248	0.00	29.696 
16:40	58.6	58.6	58.6	32	28.8	4	11	270	0.00	29.696 
16:45	58.4	58.4	58.4	30	27.1	7	14	270	0.00	29.697 
16:50	58.3	58.3	58.3	32	28.6	5	11	248	0.00	29.697 
16:55	58.4	58.4	58.4	31	27.9	5	11	248	0.00	29.697 
17:00	58.1	58.1	58.1	31	27.6	6	14	270	0.00	29.711 
17:05	58.1	58.1	58.1	31	27.6	5	14	248	0.00	29.711 
17:10	58.1	58.1	58.1	31	27.6	4	10	248	0.00	29.711 
17:15	58.0	58.0	58.0	31	27.5	7	14	270	0.00	29.714 
17:20	57.8	57.8	57.8	33	28.9	5	10	270	0.00	29.714 
17:25	57.6	57.6	57.6	34	29.4	4	12	248	0.00	29.714 
17:30	57.6	57.6	57.6	34	29.4	5	11	270	0.00	29.721 
17:35	57.5	57.5	57.5	34	29.4	3	10	270	0.00	29.721 
17:40	57.6	57.6	57.6	33	28.7	6	15	270	0.00	29.721 
17:45	57.3	57.3	57.3	33	28.4	5	14	270	0.00	29.730 
17:50	57.5	57.5	57.5	33	28.6	4	10	248	0.00	29.730 
17:55	57.5	57.5	57.5	31	27.1	5	13	248	0.00	29.730 
18:00	57.5	57.5	57.5	33	28.6	3	7	248	0.00	29.738 
18:05	57.6	57.6	57.6	33	28.7	5	17	248	0.00	29.738 
18:10	57.3	57.3	57.3	32	27.7	7	15	270	0.00	29.738 
18:15	57.3	57.3	57.3	32	27.7	4	13	248	0.00	29.742 
18:20	57.2	57.2	57.2	30	26.1	6	12	270	0.00	29.742 
18:25	57.3	57.3	57.3	31	26.9	3	10	248	0.00	29.742 
18:30	57.2	57.2	57.2	32	27.6	3	9	248	0.00	29.746 
18:35	57.0	57.0	57.0	32	27.4	4	9	248	0.00	29.746 
18:40	56.9	56.9	56.9	32	27.4	3	6	248	0.00	29.746 
18:45	56.9	56.9	56.9	32	27.4	4	9	248	0.00	29.749 
18:50	56.6	56.6	56.6	32	27.1	3	10	248	0.00	29.749 
18:55	56.3	56.3	56.3	33	27.6	3	7	248	0.00	29.749 
19:00	56.3	56.3	56.3	32	26.8	3	10	248	0.00	29.757 
19:05	56.2	56.2	56.2	32	26.7	3	10	248	0.00	29.757 
19:10	56.2	56.2	56.2	33	27.5	2	7	248	0.00	29.757 
19:15	56.0	56.0	56.0	34	28.0	3	9	248	0.00	29.763 
19:20	55.9	55.9	55.9	33	27.2	3	9	248	0.00	29.763 
19:25	55.7	55.7	55.7	33	27.0	3	10	248	0.00	29.763 
19:30	55.6	55.6	55.6	34	27.7	3	6	248	0.00	29.767 
19:35	55.4	55.4	55.4	35	28.2	3	6	248	0.00	29.767 
19:40	55.1	55.1	55.1	35	27.9	2	9	248	0.00	29.767 
19:45	55.0	55.0	55.0	36	28.5	2	10	248	0.00	29.775 
19:50	54.8	54.8	54.8	36	28.4	2	7	248	0.00	29.775 
19:55	54.7	54.7	54.7	37	28.9	1	4	270	0.00	29.775 
20:00	54.5	54.5	54.5	37	28.8	2	5	248	0.00	29.777 
20:05	54.4	54.4	54.4	38	29.3	2	5	248	0.00	29.777 
20:10	54.2	54.2	54.2	38	29.2	2	5	225	0.00	29.777 
20:15	54.1	54.1	54.1	39	29.7	1	4	225	0.00	29.777 
20:20	54.1	54.1	54.1	39	29.7	2	6	248	0.00	29.777 
20:25	53.9	53.9	53.9	40	30.1	1	3	248	0.00	29.777 
20:30	53.6	53.6	53.6	41	30.5	0	4	248	0.00	29.780 
20:35	53.5	53.5	53.5	41	30.4	1	5	248	0.00	29.780 
20:40	53.3	53.3	53.3	41	30.2	0	2	248	0.00	29.780 
20:45	53.2	53.2	53.2	41	30.1	0	2	248	0.00	29.783 
20:50	53.1	53.1	53.1	43	31.2	1	3	248	0.00	29.783 
20:55	53.1	53.1	53.1	41	30.0	1	3	248	0.00	29.783 
21:00	52.9	52.9	52.9	42	30.4	0	1	248	0.00	29.784 
21:05	52.8	52.8	52.8	42	30.3	0	2	248	0.00	29.784 
21:10	52.6	52.6	52.6	43	30.7	0	3	248	0.00	29.784 
21:15	52.6	52.6	52.6	43	30.7	1	3	248	0.00	29.784 
21:20	52.5	52.5	52.5	43	30.7	0	2	248	0.00	29.784 
21:25	52.2	52.2	52.2	43	30.4	0	1	248	0.00	29.784 
21:30	52.0	52.0	52.0	44	30.8	0	4	248	0.00	29.785 
21:35	51.9	51.9	51.9	44	30.7	0	1	248	0.00	29.785 
21:40	51.7	51.7	51.7	44	30.5	0	1	248	0.00	29.785 
21:45	51.7	51.7	51.7	44	30.5	0	2	248	0.00	29.789 
21:50	51.6	51.6	51.6	45	31.0	0	2	248	0.00	29.789 
21:55	51.4	51.4	51.4	46	31.3	0	2	248	0.00	29.789 
22:00	51.3	51.3	51.3	46	31.2	0	3	248	0.00	29.794 
22:05	51.1	51.1	51.1	46	31.0	0	1	248	0.00	29.794 
22:10	51.1	51.1	51.1	46	31.0	0	1	248	0.00	29.794 
22:15	51.0	51.0	51.0	46	31.0	0	2	248	0.00	29.796 
22:20	50.7	50.7	50.7	46	30.7	0	1	248	0.00	29.796 
22:25	50.4	50.4	50.4	47	30.9	0	0	---	0.00	29.796 
22:30	50.1	50.1	50.1	48	31.2	0	1	248	0.00	29.797 
22:35	49.6	49.6	49.6	49	31.2	0	1	248	0.00	29.797 
22:40	49.2	49.2	49.2	50	31.4	0	1	248	0.00	29.797 
22:45	48.9	48.9	48.9	50	31.1	0	1	248	0.00	29.794 
22:50	48.8	48.8	48.8	51	31.5	0	1	248	0.00	29.794 
22:55	48.8	48.8	48.8	52	32.0	0	1	248	0.00	29.794 
23:00	48.6	48.6	48.6	52	31.8	0	1	248	0.00	29.793 
23:05	48.5	48.5	48.5	52	31.7	0	1	248	0.00	29.793 
23:10	48.5	48.5	48.5	53	32.2	0	1	248	0.00	29.793 
23:15	48.3	48.3	48.3	54	32.4	0	1	248	0.00	29.792 
23:20	48.2	48.2	48.2	54	32.3	0	1	248	0.00	29.792 
23:25	48.3	48.3	48.3	54	32.4	0	1	248	0.00	29.792 
23:30	48.8	48.8	48.8	53	32.4	1	4	248	0.00	29.815 
23:35	49.4	49.4	49.4	51	32.0	2	5	270	0.00	29.815 
23:40	49.6	49.6	49.6	51	32.2	1	4	270	0.00	29.815 
23:45	49.6	49.6	49.6	51	32.2	0	3	270	0.00	29.809 
23:50	49.4	49.4	49.4	52	32.5	0	2	270	0.00	29.809 
23:55	48.9	48.9	48.9	53	32.5	0	1	270	0.00	29.809 

CoCoRaHS
IN-AL-39
A2 Web Hosting
Creative Commons License
GoDaddy
search engine by freefind advanced

loaded 2018-11-16 00:28:17 • last modified 2010-11-18 10:43:29
Privacy PolicyDisclaimer
• wx.awcolley.com is powered by PmWiki v.2002016 •
• all content (unless otherwise noted) © 2018 A W Colley